sensor_id;sensor_type;location;lat;lon;timestamp;pressure;altitude;pressure_sealevel;temperature;humidity
72896;BME280;61036;53.224;6.554;2023-04-10T00:02:05;102218.47;;;8.52;100.00
72896;BME280;61036;53.224;6.554;2023-04-10T00:04:30;102218.69;;;8.66;100.00
72896;BME280;61036;53.224;6.554;2023-04-10T00:06:56;102217.25;;;8.59;100.00
72896;BME280;61036;53.224;6.554;2023-04-10T00:09:22;102215.97;;;8.47;100.00
72896;BME280;61036;53.224;6.554;2023-04-10T00:11:47;102222.03;;;8.52;100.00
72896;BME280;61036;53.224;6.554;2023-04-10T00:14:13;102205.69;;;8.57;100.00
72896;BME280;61036;53.224;6.554;2023-04-10T00:16:38;102207.59;;;8.55;100.00
72896;BME280;61036;53.224;6.554;2023-04-10T00:19:04;102208.03;;;8.44;100.00
72896;BME280;61036;53.224;6.554;2023-04-10T00:21:30;102207.72;;;8.52;100.00
72896;BME280;61036;53.224;6.554;2023-04-10T00:23:55;102203.91;;;8.35;100.00
72896;BME280;61036;53.224;6.554;2023-04-10T00:26:21;102210.22;;;8.34;100.00
72896;BME280;61036;53.224;6.554;2023-04-10T00:28:48;102198.47;;;8.37;100.00
72896;BME280;61036;53.224;6.554;2023-04-10T00:31:13;102200.34;;;8.35;100.00
72896;BME280;61036;53.224;6.554;2023-04-10T00:33:39;102196.78;;;8.34;100.00
72896;BME280;61036;53.224;6.554;2023-04-10T00:36:05;102198.53;;;8.35;100.00
72896;BME280;61036;53.224;6.554;2023-04-10T00:38:31;102188.66;;;8.36;100.00
72896;BME280;61036;53.224;6.554;2023-04-10T00:40:56;102185.00;;;8.38;100.00
72896;BME280;61036;53.224;6.554;2023-04-10T00:43:21;102180.06;;;8.28;100.00
72896;BME280;61036;53.224;6.554;2023-04-10T00:45:48;102183.91;;;8.22;100.00
72896;BME280;61036;53.224;6.554;2023-04-10T00:48:14;102174.41;;;8.13;100.00
72896;BME280;61036;53.224;6.554;2023-04-10T00:50:40;102167.63;;;8.05;100.00
72896;BME280;61036;53.224;6.554;2023-04-10T00:53:05;102161.38;;;8.04;100.00
72896;BME280;61036;53.224;6.554;2023-04-10T00:55:31;102158.75;;;8.02;100.00
72896;BME280;61036;53.224;6.554;2023-04-10T00:57:57;102160.56;;;8.02;100.00
72896;BME280;61036;53.224;6.554;2023-04-10T01:00:22;102154.88;;;8.10;100.00
72896;BME280;61036;53.224;6.554;2023-04-10T01:02:48;102144.16;;;7.88;100.00
72896;BME280;61036;53.224;6.554;2023-04-10T01:05:14;102138.94;;;8.05;100.00
72896;BME280;61036;53.224;6.554;2023-04-10T01:08:05;102145.00;;;8.10;100.00
72896;BME280;61036;53.224;6.554;2023-04-10T01:11:21;102134.97;;;7.93;100.00
72896;BME280;61036;53.224;6.554;2023-04-10T01:14:04;102130.09;;;7.83;100.00
72896;BME280;61036;53.224;6.554;2023-04-10T01:16:35;102143.63;;;8.00;100.00
72896;BME280;61036;53.224;6.554;2023-04-10T01:21:45;102125.72;;;7.80;100.00
72896;BME280;61036;53.224;6.554;2023-04-10T01:24:23;102128.31;;;7.82;100.00
72896;BME280;61036;53.224;6.554;2023-04-10T01:29:44;102121.94;;;7.84;100.00
72896;BME280;61036;53.224;6.554;2023-04-10T01:32:15;102115.53;;;7.88;100.00
72896;BME280;61036;53.224;6.554;2023-04-10T01:34:48;102117.06;;;7.73;100.00
72896;BME280;61036;53.224;6.554;2023-04-10T01:37:18;102113.81;;;7.65;100.00
72896;BME280;61036;53.224;6.554;2023-04-10T01:39:46;102113.59;;;7.70;100.00
72896;BME280;61036;53.224;6.554;2023-04-10T01:42:16;102106.88;;;7.60;100.00
72896;BME280;61036;53.224;6.554;2023-04-10T01:44:45;102110.56;;;7.57;100.00
72896;BME280;61036;53.224;6.554;2023-04-10T01:47:13;102105.75;;;7.65;100.00
72896;BME280;61036;53.224;6.554;2023-04-10T01:49:43;102104.63;;;7.71;100.00
72896;BME280;61036;53.224;6.554;2023-04-10T01:52:10;102102.06;;;7.68;100.00
72896;BME280;61036;53.224;6.554;2023-04-10T01:54:36;102094.66;;;7.52;100.00
72896;BME280;61036;53.224;6.554;2023-04-10T01:57:03;102093.97;;;7.47;100.00
72896;BME280;61036;53.224;6.554;2023-04-10T01:59:37;102086.53;;;7.54;100.00
72896;BME280;61036;53.224;6.554;2023-04-10T02:02:03;102085.59;;;7.55;100.00
72896;BME280;61036;53.224;6.554;2023-04-10T02:04:31;102089.44;;;7.49;100.00
72896;BME280;61036;53.224;6.554;2023-04-10T02:07:06;102084.72;;;7.54;100.00
72896;BME280;61036;53.224;6.554;2023-04-10T02:12:05;102078.22;;;7.60;100.00
72896;BME280;61036;53.224;6.554;2023-04-10T02:14:33;102077.53;;;7.55;100.00
72896;BME280;61036;53.224;6.554;2023-04-10T02:17:01;102079.09;;;7.61;100.00
72896;BME280;61036;53.224;6.554;2023-04-10T02:19:30;102084.72;;;7.54;100.00
72896;BME280;61036;53.224;6.554;2023-04-10T02:21:56;102082.13;;;7.53;100.00
72896;BME280;61036;53.224;6.554;2023-04-10T02:24:23;102082.44;;;7.45;100.00
72896;BME280;61036;53.224;6.554;2023-04-10T02:26:50;102076.34;;;7.62;100.00
72896;BME280;61036;53.224;6.554;2023-04-10T02:29:16;102076.94;;;7.48;100.00
72896;BME280;61036;53.224;6.554;2023-04-10T02:31:43;102067.31;;;7.43;100.00
72896;BME280;61036;53.224;6.554;2023-04-10T02:34:09;102060.34;;;7.39;100.00
72896;BME280;61036;53.224;6.554;2023-04-10T02:36:38;102058.13;;;7.48;100.00
72896;BME280;61036;53.224;6.554;2023-04-10T02:39:05;102053.72;;;7.47;100.00
72896;BME280;61036;53.224;6.554;2023-04-10T02:41:33;102055.81;;;7.41;100.00
72896;BME280;61036;53.224;6.554;2023-04-10T02:44:01;102050.47;;;7.39;100.00
72896;BME280;61036;53.224;6.554;2023-04-10T02:46:27;102048.94;;;7.33;100.00
72896;BME280;61036;53.224;6.554;2023-04-10T02:48:53;102044.25;;;7.39;100.00
72896;BME280;61036;53.224;6.554;2023-04-10T02:51:19;102042.50;;;7.38;100.00
72896;BME280;61036;53.224;6.554;2023-04-10T02:53:44;102045.13;;;7.39;100.00
72896;BME280;61036;53.224;6.554;2023-04-10T02:56:20;102048.75;;;7.38;100.00
72896;BME280;61036;53.224;6.554;2023-04-10T02:58:45;102041.88;;;7.31;100.00
72896;BME280;61036;53.224;6.554;2023-04-10T03:01:13;102044.06;;;7.43;100.00
72896;BME280;61036;53.224;6.554;2023-04-10T03:03:41;102043.16;;;7.43;100.00
72896;BME280;61036;53.224;6.554;2023-04-10T03:06:08;102042.84;;;7.50;100.00
72896;BME280;61036;53.224;6.554;2023-04-10T03:08:35;102036.47;;;7.32;100.00
72896;BME280;61036;53.224;6.554;2023-04-10T03:11:00;102043.78;;;7.29;100.00
72896;BME280;61036;53.224;6.554;2023-04-10T03:13:27;102043.63;;;7.32;100.00
72896;BME280;61036;53.224;6.554;2023-04-10T03:15:52;102045.38;;;7.33;100.00
72896;BME280;61036;53.224;6.554;2023-04-10T03:18:18;102039.69;;;7.41;100.00
72896;BME280;61036;53.224;6.554;2023-04-10T03:20:46;102044.19;;;7.40;100.00
72896;BME280;61036;53.224;6.554;2023-04-10T03:23:12;102042.69;;;7.33;100.00
72896;BME280;61036;53.224;6.554;2023-04-10T03:25:39;102043.03;;;7.46;100.00
72896;BME280;61036;53.224;6.554;2023-04-10T03:28:06;102040.44;;;7.44;100.00
72896;BME280;61036;53.224;6.554;2023-04-10T03:30:32;102040.34;;;7.46;100.00
72896;BME280;61036;53.224;6.554;2023-04-10T03:33:00;102031.22;;;7.29;100.00
72896;BME280;61036;53.224;6.554;2023-04-10T03:35:25;102036.75;;;7.25;100.00
72896;BME280;61036;53.224;6.554;2023-04-10T03:37:51;102034.97;;;7.25;100.00
72896;BME280;61036;53.224;6.554;2023-04-10T03:40:16;102034.97;;;7.25;100.00
72896;BME280;61036;53.224;6.554;2023-04-10T03:42:42;102040.09;;;7.31;100.00
72896;BME280;61036;53.224;6.554;2023-04-10T03:45:08;102038.16;;;7.35;100.00
72896;BME280;61036;53.224;6.554;2023-04-10T03:47:34;102035.94;;;7.45;100.00
72896;BME280;61036;53.224;6.554;2023-04-10T03:50:02;102036.28;;;7.37;100.00
72896;BME280;61036;53.224;6.554;2023-04-10T03:52:35;102029.41;;;7.30;100.00
72896;BME280;61036;53.224;6.554;2023-04-10T03:55:01;102029.66;;;7.24;100.00
72896;BME280;61036;53.224;6.554;2023-04-10T03:57:27;102026.81;;;7.28;100.00
72896;BME280;61036;53.224;6.554;2023-04-10T03:59:59;102025.28;;;7.21;100.00
72896;BME280;61036;53.224;6.554;2023-04-10T04:02:26;102016.97;;;7.27;100.00
72896;BME280;61036;53.224;6.554;2023-04-10T04:04:53;102013.13;;;7.13;100.00
72896;BME280;61036;53.224;6.554;2023-04-10T04:07:39;102008.03;;;7.06;100.00
72896;BME280;61036;53.224;6.554;2023-04-10T04:10:24;102004.97;;;7.16;100.00
72896;BME280;61036;53.224;6.554;2023-04-10T04:13:10;102005.72;;;7.19;100.00
72896;BME280;61036;53.224;6.554;2023-04-10T04:15:55;101998.94;;;7.10;100.00
72896;BME280;61036;53.224;6.554;2023-04-10T04:18:53;101995.31;;;7.12;100.00
72896;BME280;61036;53.224;6.554;2023-04-10T04:21:29;101992.06;;;7.03;100.00
72896;BME280;61036;53.224;6.554;2023-04-10T04:24:12;101977.91;;;7.00;100.00
72896;BME280;61036;53.224;6.554;2023-04-10T04:26:54;101976.91;;;7.02;100.00
72896;BME280;61036;53.224;6.554;2023-04-10T04:29:46;101974.38;;;6.99;100.00
72896;BME280;61036;53.224;6.554;2023-04-10T04:32:44;101966.19;;;7.02;100.00
72896;BME280;61036;53.224;6.554;2023-04-10T04:35:31;101967.00;;;7.04;100.00
72896;BME280;61036;53.224;6.554;2023-04-10T04:38:19;101970.22;;;7.13;100.00
72896;BME280;61036;53.224;6.554;2023-04-10T04:41:06;101963.81;;;7.17;100.00
72896;BME280;61036;53.224;6.554;2023-04-10T04:43:50;101963.13;;;7.12;100.00
72896;BME280;61036;53.224;6.554;2023-04-10T04:46:36;101960.16;;;7.18;100.00
72896;BME280;61036;53.224;6.554;2023-04-10T04:49:20;101960.38;;;7.13;100.00
72896;BME280;61036;53.224;6.554;2023-04-10T04:51:51;101954.22;;;7.11;100.00
72896;BME280;61036;53.224;6.554;2023-04-10T04:54:36;101946.00;;;6.94;100.00
72896;BME280;61036;53.224;6.554;2023-04-10T04:57:27;101947.91;;;7.12;100.00
72896;BME280;61036;53.224;6.554;2023-04-10T05:00:03;101952.13;;;7.18;100.00
72896;BME280;61036;53.224;6.554;2023-04-10T05:02:54;101947.63;;;7.18;100.00
72896;BME280;61036;53.224;6.554;2023-04-10T05:05:36;101952.72;;;7.24;100.00
72896;BME280;61036;53.224;6.554;2023-04-10T05:08:24;101952.31;;;7.33;100.00
72896;BME280;61036;53.224;6.554;2023-04-10T05:11:09;101952.13;;;7.38;100.00
72896;BME280;61036;53.224;6.554;2023-04-10T05:13:34;101951.72;;;7.47;100.00
72896;BME280;61036;53.224;6.554;2023-04-10T05:16:20;101949.38;;;7.60;100.00
72896;BME280;61036;53.224;6.554;2023-04-10T05:19:12;101946.34;;;7.68;100.00
72896;BME280;61036;53.224;6.554;2023-04-10T05:21:56;101948.38;;;7.82;100.00
72896;BME280;61036;53.224;6.554;2023-04-10T05:24:42;101951.75;;;7.87;100.00
72896;BME280;61036;53.224;6.554;2023-04-10T05:27:13;101938.47;;;8.02;100.00
72896;BME280;61036;53.224;6.554;2023-04-10T05:30:17;101944.22;;;8.14;100.00
72896;BME280;61036;53.224;6.554;2023-04-10T05:33:14;101947.19;;;8.08;100.00
72896;BME280;61036;53.224;6.554;2023-04-10T05:36:01;101943.78;;;8.23;100.00
72896;BME280;61036;53.224;6.554;2023-04-10T05:38:51;101948.47;;;8.38;100.00
72896;BME280;61036;53.224;6.554;2023-04-10T05:41:45;101944.59;;;8.25;100.00
72896;BME280;61036;53.224;6.554;2023-04-10T05:44:22;101944.94;;;8.36;100.00
72896;BME280;61036;53.224;6.554;2023-04-10T05:47:17;101941.41;;;8.55;100.00
72896;BME280;61036;53.224;6.554;2023-04-10T05:50:09;101929.75;;;8.54;100.00
72896;BME280;61036;53.224;6.554;2023-04-10T05:52:49;101939.03;;;8.66;100.00
72896;BME280;61036;53.224;6.554;2023-04-10T05:55:50;101940.88;;;8.65;100.00
72896;BME280;61036;53.224;6.554;2023-04-10T05:58:35;101938.13;;;8.84;100.00
72896;BME280;61036;53.224;6.554;2023-04-10T06:01:19;101930.81;;;8.69;100.00
72896;BME280;61036;53.224;6.554;2023-04-10T06:03:50;101928.13;;;8.69;100.00
72896;BME280;61036;53.224;6.554;2023-04-10T06:06:16;101926.94;;;8.93;100.00
72896;BME280;61036;53.224;6.554;2023-04-10T06:08:42;101929.59;;;9.11;100.00
72896;BME280;61036;53.224;6.554;2023-04-10T06:11:07;101913.94;;;9.02;100.00
72896;BME280;61036;53.224;6.554;2023-04-10T06:13:33;101916.63;;;9.02;100.00
72896;BME280;61036;53.224;6.554;2023-04-10T06:16:00;101912.38;;;9.15;100.00
72896;BME280;61036;53.224;6.554;2023-04-10T06:18:27;101916.69;;;9.35;100.00
72896;BME280;61036;53.224;6.554;2023-04-10T06:20:52;101920.88;;;9.41;100.00
72896;BME280;61036;53.224;6.554;2023-04-10T06:23:18;101912.47;;;9.80;100.00
72896;BME280;61036;53.224;6.554;2023-04-10T06:25:44;101919.13;;;9.90;100.00
72896;BME280;61036;53.224;6.554;2023-04-10T06:28:09;101904.00;;;10.19;100.00
72896;BME280;61036;53.224;6.554;2023-04-10T06:30:35;101906.59;;;10.38;100.00
72896;BME280;61036;53.224;6.554;2023-04-10T06:33:03;101901.41;;;10.18;100.00
72896;BME280;61036;53.224;6.554;2023-04-10T06:35:31;101894.63;;;10.11;100.00
72896;BME280;61036;53.224;6.554;2023-04-10T06:37:57;101902.44;;;9.99;100.00
72896;BME280;61036;53.224;6.554;2023-04-10T06:40:23;101881.13;;;9.95;100.00
72896;BME280;61036;53.224;6.554;2023-04-10T06:42:48;101887.34;;;10.28;100.00
72896;BME280;61036;53.224;6.554;2023-04-10T06:45:22;101887.16;;;10.32;100.00
72896;BME280;61036;53.224;6.554;2023-04-10T06:47:47;101889.09;;;10.45;100.00
72896;BME280;61036;53.224;6.554;2023-04-10T06:50:13;101876.03;;;10.53;100.00
72896;BME280;61036;53.224;6.554;2023-04-10T06:52:38;101875.75;;;11.18;100.00
72896;BME280;61036;53.224;6.554;2023-04-10T06:55:04;101871.50;;;12.29;100.00
72896;BME280;61036;53.224;6.554;2023-04-10T06:57:30;101870.78;;;12.12;100.00
72896;BME280;61036;53.224;6.554;2023-04-10T06:59:55;101861.19;;;13.28;100.00
72896;BME280;61036;53.224;6.554;2023-04-10T07:02:21;101857.09;;;13.48;100.00
72896;BME280;61036;53.224;6.554;2023-04-10T07:04:46;101866.09;;;12.56;100.00
72896;BME280;61036;53.224;6.554;2023-04-10T07:07:12;101855.09;;;12.18;100.00
72896;BME280;61036;53.224;6.554;2023-04-10T07:09:38;101860.19;;;11.52;100.00
72896;BME280;61036;53.224;6.554;2023-04-10T07:12:04;101856.50;;;11.67;100.00
72896;BME280;61036;53.224;6.554;2023-04-10T07:14:31;101852.94;;;11.38;100.00
72896;BME280;61036;53.224;6.554;2023-04-10T07:16:58;101850.50;;;12.32;100.00
72896;BME280;61036;53.224;6.554;2023-04-10T07:19:24;101846.41;;;12.94;100.00
72896;BME280;61036;53.224;6.554;2023-04-10T07:21:50;101835.41;;;12.16;100.00
72896;BME280;61036;53.224;6.554;2023-04-10T07:24:16;101833.97;;;12.10;100.00
72896;BME280;61036;53.224;6.554;2023-04-10T07:26:43;101826.13;;;12.20;100.00
72896;BME280;61036;53.224;6.554;2023-04-10T07:29:08;101817.50;;;12.27;100.00
72896;BME280;61036;53.224;6.554;2023-04-10T07:31:34;101817.25;;;12.85;100.00
72896;BME280;61036;53.224;6.554;2023-04-10T07:34:01;101813.25;;;13.16;100.00
72896;BME280;61036;53.224;6.554;2023-04-10T07:36:26;101809.91;;;13.50;100.00
72896;BME280;61036;53.224;6.554;2023-04-10T07:38:53;101804.44;;;12.87;100.00
72896;BME280;61036;53.224;6.554;2023-04-10T07:41:19;101796.19;;;12.63;100.00
72896;BME280;61036;53.224;6.554;2023-04-10T07:43:44;101797.66;;;13.32;100.00
72896;BME280;61036;53.224;6.554;2023-04-10T07:46:10;101786.84;;;13.32;100.00
72896;BME280;61036;53.224;6.554;2023-04-10T07:48:36;101779.00;;;13.53;100.00
72896;BME280;61036;53.224;6.554;2023-04-10T07:51:02;101771.88;;;14.61;100.00
72896;BME280;61036;53.224;6.554;2023-04-10T07:53:27;101777.31;;;14.61;97.74
72896;BME280;61036;53.224;6.554;2023-04-10T07:55:53;101772.34;;;14.07;99.03
72896;BME280;61036;53.224;6.554;2023-04-10T07:58:18;101764.13;;;14.19;98.11
72896;BME280;61036;53.224;6.554;2023-04-10T08:00:44;101763.56;;;15.88;93.59
72896;BME280;61036;53.224;6.554;2023-04-10T08:03:10;101758.88;;;15.90;88.74
72896;BME280;61036;53.224;6.554;2023-04-10T08:05:37;101755.47;;;16.20;87.29
72896;BME280;61036;53.224;6.554;2023-04-10T08:08:02;101750.75;;;15.11;92.61
72896;BME280;61036;53.224;6.554;2023-04-10T08:10:28;101743.69;;;15.76;90.00
72896;BME280;61036;53.224;6.554;2023-04-10T08:12:53;101739.13;;;16.20;89.93
72896;BME280;61036;53.224;6.554;2023-04-10T08:15:19;101730.91;;;15.99;85.89
72896;BME280;61036;53.224;6.554;2023-04-10T08:17:44;101724.31;;;15.47;91.25
72896;BME280;61036;53.224;6.554;2023-04-10T08:20:11;101724.53;;;15.55;89.59
72896;BME280;61036;53.224;6.554;2023-04-10T08:22:37;101717.03;;;15.36;89.31
72896;BME280;61036;53.224;6.554;2023-04-10T08:25:03;101717.88;;;15.37;89.50
72896;BME280;61036;53.224;6.554;2023-04-10T08:27:29;101714.59;;;15.99;88.49
72896;BME280;61036;53.224;6.554;2023-04-10T08:29:55;101713.38;;;16.45;84.79
72896;BME280;61036;53.224;6.554;2023-04-10T08:32:21;101715.59;;;17.54;80.33
72896;BME280;61036;53.224;6.554;2023-04-10T08:34:47;101712.09;;;18.61;77.10
72896;BME280;61036;53.224;6.554;2023-04-10T08:37:13;101709.81;;;17.88;76.04
72896;BME280;61036;53.224;6.554;2023-04-10T08:39:40;101699.41;;;18.89;74.84
72896;BME280;61036;53.224;6.554;2023-04-10T08:42:06;101700.81;;;19.30;71.74
72896;BME280;61036;53.224;6.554;2023-04-10T08:44:32;101697.31;;;20.11;63.69
72896;BME280;61036;53.224;6.554;2023-04-10T08:46:58;101702.06;;;18.03;69.16
72896;BME280;61036;53.224;6.554;2023-04-10T08:49:57;101701.88;;;17.35;73.93
72896;BME280;61036;53.224;6.554;2023-04-10T08:52:28;101694.22;;;15.82;84.97
72896;BME280;61036;53.224;6.554;2023-04-10T08:54:56;101703.13;;;15.84;86.03
72896;BME280;61036;53.224;6.554;2023-04-10T08:57:24;101689.72;;;17.08;81.23
72896;BME280;61036;53.224;6.554;2023-04-10T08:59:51;101692.38;;;17.29;76.95
72896;BME280;61036;53.224;6.554;2023-04-10T09:02:18;101684.44;;;17.57;78.83
72896;BME280;61036;53.224;6.554;2023-04-10T09:04:51;101671.72;;;17.87;73.17
72896;BME280;61036;53.224;6.554;2023-04-10T09:07:19;101671.28;;;18.49;72.81
72896;BME280;61036;53.224;6.554;2023-04-10T09:09:45;101672.03;;;18.32;69.47
72896;BME280;61036;53.224;6.554;2023-04-10T09:12:12;101676.22;;;16.55;79.65
72896;BME280;61036;53.224;6.554;2023-04-10T09:14:39;101653.47;;;17.18;76.44
72896;BME280;61036;53.224;6.554;2023-04-10T09:17:19;101659.25;;;16.73;79.75
72896;BME280;61036;53.224;6.554;2023-04-10T09:19:46;101648.84;;;17.08;77.51
72896;BME280;61036;53.224;6.554;2023-04-10T09:22:13;101653.88;;;17.13;74.78
72896;BME280;61036;53.224;6.554;2023-04-10T09:24:43;101644.63;;;17.35;78.35
72896;BME280;61036;53.224;6.554;2023-04-10T09:27:10;101639.47;;;16.91;78.69
72896;BME280;61036;53.224;6.554;2023-04-10T09:29:51;101643.59;;;16.02;81.94
72896;BME280;61036;53.224;6.554;2023-04-10T09:35:00;101620.16;;;16.53;83.43
72896;BME280;61036;53.224;6.554;2023-04-10T09:37:35;101616.94;;;16.17;84.85
72896;BME280;61036;53.224;6.554;2023-04-10T09:40:02;101614.06;;;15.76;87.67
72896;BME280;61036;53.224;6.554;2023-04-10T09:42:30;101601.72;;;16.35;82.99
72896;BME280;61036;53.224;6.554;2023-04-10T09:44:57;101602.66;;;16.25;81.00
72896;BME280;61036;53.224;6.554;2023-04-10T09:47:23;101591.00;;;17.55;81.29
72896;BME280;61036;53.224;6.554;2023-04-10T09:49:53;101591.09;;;17.24;82.43
72896;BME280;61036;53.224;6.554;2023-04-10T09:52:30;101589.06;;;16.76;80.62
72896;BME280;61036;53.224;6.554;2023-04-10T09:55:04;101586.94;;;16.59;82.32
72896;BME280;61036;53.224;6.554;2023-04-10T09:57:31;101584.81;;;16.93;79.93
72896;BME280;61036;53.224;6.554;2023-04-10T09:59:59;101580.81;;;17.86;73.30
72896;BME280;61036;53.224;6.554;2023-04-10T10:02:28;101572.75;;;18.14;73.29
72896;BME280;61036;53.224;6.554;2023-04-10T10:04:54;101570.19;;;18.02;78.74
72896;BME280;61036;53.224;6.554;2023-04-10T10:07:21;101564.75;;;18.02;73.64
72896;BME280;61036;53.224;6.554;2023-04-10T10:09:49;101561.44;;;16.60;75.22
72896;BME280;61036;53.224;6.554;2023-04-10T10:12:22;101564.16;;;17.70;73.32
72896;BME280;61036;53.224;6.554;2023-04-10T10:17:31;101545.94;;;17.60;77.41
72896;BME280;61036;53.224;6.554;2023-04-10T10:20:07;101533.22;;;17.01;78.23
72896;BME280;61036;53.224;6.554;2023-04-10T10:22:34;101534.19;;;15.98;82.41
72896;BME280;61036;53.224;6.554;2023-04-10T10:25:01;101526.03;;;16.60;86.84
72896;BME280;61036;53.224;6.554;2023-04-10T10:27:29;101517.13;;;15.96;85.80
72896;BME280;61036;53.224;6.554;2023-04-10T10:29:58;101516.78;;;16.11;84.52
72896;BME280;61036;53.224;6.554;2023-04-10T10:32:25;101504.19;;;15.68;89.09
72896;BME280;61036;53.224;6.554;2023-04-10T10:34:52;101495.03;;;15.90;84.75
72896;BME280;61036;53.224;6.554;2023-04-10T10:37:19;101495.31;;;15.87;85.61
72896;BME280;61036;53.224;6.554;2023-04-10T10:40:04;101482.50;;;15.98;86.43
72896;BME280;61036;53.224;6.554;2023-04-10T10:42:45;101487.75;;;15.69;90.74
72896;BME280;61036;53.224;6.554;2023-04-10T10:45:14;101485.25;;;15.45;87.87
72896;BME280;61036;53.224;6.554;2023-04-10T10:47:45;101474.63;;;15.74;87.84
72896;BME280;61036;53.224;6.554;2023-04-10T10:50:11;101479.28;;;15.51;84.08
72896;BME280;61036;53.224;6.554;2023-04-10T10:57:51;101475.38;;;15.44;84.43
72896;BME280;61036;53.224;6.554;2023-04-10T11:00:18;101465.94;;;15.48;88.02
72896;BME280;61036;53.224;6.554;2023-04-10T11:02:44;101457.59;;;15.40;85.33
72896;BME280;61036;53.224;6.554;2023-04-10T11:11:36;101436.47;;;15.65;85.85
72896;BME280;61036;53.224;6.554;2023-04-10T11:16:44;101435.28;;;16.09;86.71
72896;BME280;61036;53.224;6.554;2023-04-10T11:19:10;101431.56;;;15.80;84.94
72896;BME280;61036;53.224;6.554;2023-04-10T11:21:59;101420.81;;;15.78;84.45
72896;BME280;61036;53.224;6.554;2023-04-10T11:24:25;101423.66;;;15.55;85.94
72896;BME280;61036;53.224;6.554;2023-04-10T11:26:51;101419.66;;;15.71;85.91
72896;BME280;61036;53.224;6.554;2023-04-10T11:31:43;101399.88;;;15.99;85.80
72896;BME280;61036;53.224;6.554;2023-04-10T11:34:09;101391.94;;;15.87;83.25
72896;BME280;61036;53.224;6.554;2023-04-10T11:36:39;101393.22;;;15.83;85.80
72896;BME280;61036;53.224;6.554;2023-04-10T11:39:07;101380.00;;;16.09;83.84
72896;BME280;61036;53.224;6.554;2023-04-10T11:41:37;101390.41;;;16.25;86.36
72896;BME280;61036;53.224;6.554;2023-04-10T11:44:05;101385.84;;;16.35;84.34
72896;BME280;61036;53.224;6.554;2023-04-10T11:46:35;101370.59;;;16.13;83.15
72896;BME280;61036;53.224;6.554;2023-04-10T11:49:03;101349.59;;;15.94;83.54
72896;BME280;61036;53.224;6.554;2023-04-10T11:51:30;101355.38;;;15.70;84.42
72896;BME280;61036;53.224;6.554;2023-04-10T11:56:34;101341.72;;;15.91;84.30
72896;BME280;61036;53.224;6.554;2023-04-10T11:59:00;101340.19;;;16.58;84.09
72896;BME280;61036;53.224;6.554;2023-04-10T12:01:26;101336.06;;;16.04;85.39
72896;BME280;61036;53.224;6.554;2023-04-10T12:03:53;101333.69;;;16.39;84.37
72896;BME280;61036;53.224;6.554;2023-04-10T12:06:19;101332.41;;;16.73;83.06
72896;BME280;61036;53.224;6.554;2023-04-10T12:08:46;101314.66;;;16.68;85.14
72896;BME280;61036;53.224;6.554;2023-04-10T12:11:19;101310.22;;;16.67;80.48
72896;BME280;61036;53.224;6.554;2023-04-10T12:13:46;101315.78;;;16.46;82.46
72896;BME280;61036;53.224;6.554;2023-04-10T12:16:12;101311.03;;;16.19;83.33
72896;BME280;61036;53.224;6.554;2023-04-10T12:18:38;101294.75;;;16.58;83.49
72896;BME280;61036;53.224;6.554;2023-04-10T12:21:05;101288.28;;;16.59;79.87
72896;BME280;61036;53.224;6.554;2023-04-10T12:23:32;101293.56;;;16.51;80.53
72896;BME280;61036;53.224;6.554;2023-04-10T12:26:12;101283.25;;;16.94;78.85
72896;BME280;61036;53.224;6.554;2023-04-10T12:28:40;101270.31;;;17.25;80.17
72896;BME280;61036;53.224;6.554;2023-04-10T12:31:06;101277.94;;;16.73;78.48
72896;BME280;61036;53.224;6.554;2023-04-10T12:33:32;101268.50;;;17.06;83.29
72896;BME280;61036;53.224;6.554;2023-04-10T12:35:58;101260.16;;;17.07;79.90
72896;BME280;61036;53.224;6.554;2023-04-10T12:38:42;101254.53;;;17.56;80.05
72896;BME280;61036;53.224;6.554;2023-04-10T12:41:09;101246.50;;;17.17;79.15
72896;BME280;61036;53.224;6.554;2023-04-10T12:43:40;101255.34;;;16.82;80.25
72896;BME280;61036;53.224;6.554;2023-04-10T12:46:09;101242.50;;;17.11;80.32
72896;BME280;61036;53.224;6.554;2023-04-10T12:48:35;101238.97;;;17.01;80.45
72896;BME280;61036;53.224;6.554;2023-04-10T12:51:01;101244.28;;;16.74;83.71
72896;BME280;61036;53.224;6.554;2023-04-10T12:53:28;101233.81;;;16.69;82.17
72896;BME280;61036;53.224;6.554;2023-04-10T12:56:04;101245.88;;;16.57;86.54
72896;BME280;61036;53.224;6.554;2023-04-10T12:58:33;101235.81;;;16.18;85.93
72896;BME280;61036;53.224;6.554;2023-04-10T13:01:03;101239.00;;;16.43;87.16
72896;BME280;61036;53.224;6.554;2023-04-10T13:03:29;101227.97;;;16.44;89.10
72896;BME280;61036;53.224;6.554;2023-04-10T13:05:55;101213.78;;;16.41;86.88
72896;BME280;61036;53.224;6.554;2023-04-10T13:08:21;101213.78;;;16.41;88.10
72896;BME280;61036;53.224;6.554;2023-04-10T13:10:47;101205.31;;;16.44;88.07
72896;BME280;61036;53.224;6.554;2023-04-10T13:13:14;101209.03;;;16.33;87.77
72896;BME280;61036;53.224;6.554;2023-04-10T13:15:40;101189.88;;;16.35;88.59
72896;BME280;61036;53.224;6.554;2023-04-10T13:18:06;101197.72;;;16.18;89.37
72896;BME280;61036;53.224;6.554;2023-04-10T13:20:33;101187.00;;;16.46;88.92
72896;BME280;61036;53.224;6.554;2023-04-10T13:22:59;101187.41;;;16.12;90.91
72896;BME280;61036;53.224;6.554;2023-04-10T13:25:26;101178.69;;;16.18;90.01
72896;BME280;61036;53.224;6.554;2023-04-10T13:27:52;101167.81;;;16.38;91.47
72896;BME280;61036;53.224;6.554;2023-04-10T13:30:17;101168.69;;;16.19;91.72
72896;BME280;61036;53.224;6.554;2023-04-10T13:32:42;101155.78;;;16.02;91.22
72896;BME280;61036;53.224;6.554;2023-04-10T13:35:08;101148.16;;;16.44;92.71
72896;BME280;61036;53.224;6.554;2023-04-10T13:37:34;101141.88;;;16.14;90.20